West Exeter, New York
Current Conditions -  °F | °C
As of 4:53 AM on Sunday 25 Jan 2015 (Local Time) from KRME Reporting Station
Light Snow Light Snow  
Wind Chill: 17°   Ceiling: 5500
Heat Index: 30°   Visibility: 8mi
Dew Point: 23°   Wind: 21mph
Humidity: 75%   Direction: 280°W
Pressure: 29.55"   Gusts: 32mph
Location:  42.8676°N, 75.1875°W
Report Text: KRME 250953Z AUTO 28018G28KT 8SM -SN FEW028 OVC055 M01/M05 A2955 RMK AO2 PK WND 28031/0935 UPB39E42SNB40E41B42 SLP010 P0000 T10111050
Loading
Personal Weather Stations






























Interactive Weather Map New forecast layout! Learn more

10-Day Weather Forecast

Advertisements
Track Severe Weather on mobile